Time;durP1;ratioP1;P1;durP2;ratioP2;P2;SDS_P1;SDS_P2;PMS_P1;PMS_P2;Temp;Humidity;BMP_temperature;BMP_pressure;BME280_temperature;BME280_humidity;BME280_pressure;Samples;Min_cycle;Max_cycle;Signal;HPM_P1;HPM_P2
2022/10/04 00:02:01;;;;;;;12.43;6.07;;;;;;;12.83;100.00;102281.44;5311238;28;20672;-73
2022/10/04 00:04:50;;;;;;;9.23;6.20;;;;;;;12.97;100.00;102283.09;5310200;28;20114;-72
2022/10/04 00:07:26;;;;;;;10.48;5.57;;;;;;;12.84;100.00;102281.34;5308430;28;20027;-73
2022/10/04 00:10:03;;;;;;;9.75;6.32;;;;;;;12.85;100.00;102274.31;5310463;28;20052;-73
2022/10/04 00:12:39;;;;;;;11.48;5.50;;;;;;;12.88;100.00;102274.94;5306582;28;20123;-72
2022/10/04 00:15:20;;;;;;;9.68;6.00;;;;;;;12.95;100.00;102282.34;5306442;28;20032;-72
2022/10/04 00:18:09;;;;;;;12.02;6.35;;;;;;;13.01;100.00;102263.50;5309011;28;20069;-72
2022/10/04 00:20:47;;;;;;;9.45;6.15;;;;;;;12.91;100.00;102271.22;5307013;28;20048;-73
2022/10/04 00:23:24;;;;;;;11.20;5.40;;;;;;;12.88;100.00;102269.66;5311573;28;20372;-73
2022/10/04 00:26:04;;;;;;;7.22;5.47;;;;;;;12.87;100.00;102264.50;5302497;28;20036;-73
2022/10/04 00:28:35;;;;;;;11.48;6.07;;;;;;;12.69;100.00;102261.41;5306090;28;20039;-72
2022/10/04 00:31:14;;;;;;;10.93;6.10;;;;;;;12.82;100.00;102259.56;5304903;28;20024;-73
2022/10/04 00:33:52;;;;;;;8.80;5.30;;;;;;;12.70;100.00;102254.34;5292315;28;20352;-73
2022/10/04 00:36:23;;;;;;;11.05;5.75;;;;;;;12.58;100.00;102254.28;5306149;28;20024;-73
2022/10/04 00:39:03;;;;;;;9.67;5.77;;;;;;;12.72;100.00;102250.66;5310772;28;20024;-73
2022/10/04 00:41:47;;;;;;;11.65;6.30;;;;;;;12.71;100.00;102243.72;5310490;28;20297;-73
2022/10/04 00:44:28;;;;;;;11.85;6.10;;;;;;;12.63;100.00;102241.63;5308744;28;20084;-73
2022/10/04 00:47:03;;;;;;;10.30;6.22;;;;;;;12.42;100.00;102245.78;5294167;28;20032;-73
2022/10/04 00:49:40;;;;;;;10.98;6.30;;;;;;;12.50;100.00;102255.75;5287587;28;20031;-73
2022/10/04 00:52:15;;;;;;;10.27;6.28;;;;;;;12.49;100.00;102251.44;5313008;28;20495;-73
2022/10/04 00:54:56;;;;;;;8.30;5.88;;;;;;;12.49;100.00;102247.03;5293505;28;20032;-73
2022/10/04 00:57:33;;;;;;;9.52;5.88;;;;;;;12.40;100.00;102245.91;5306972;28;20035;-73
2022/10/04 01:00:13;;;;;;;8.93;5.45;;;;;;;12.47;100.00;102237.59;5313532;28;20046;-73
2022/10/04 01:02:49;;;;;;;10.30;5.97;;;;;;;12.29;100.00;102235.28;5302618;28;20054;-73
2022/10/04 01:05:45;;;;;;;9.18;5.60;;;;;;;12.56;100.00;102227.25;5307830;28;20031;-73
2022/10/04 01:08:24;;;;;;;10.02;6.00;;;;;;;12.36;100.00;102226.03;5306492;28;20053;-73
2022/10/04 01:11:05;;;;;;;10.50;5.70;;;;;;;12.28;100.00;102223.09;5311326;28;20385;-72
2022/10/04 01:13:41;;;;;;;9.43;6.13;;;;;;;12.22;100.00;102215.63;5303553;28;20101;-73
2022/10/04 01:16:15;;;;;;;11.02;6.93;;;;;;;12.28;100.00;102212.59;5308164;28;20035;-73
2022/10/04 01:18:46;;;;;;;10.85;6.57;;;;;;;12.16;100.00;102209.03;5309636;28;20028;-73
2022/10/04 01:21:21;;;;;;;8.88;6.43;;;;;;;12.18;100.00;102216.81;5303161;28;20052;-73
2022/10/04 01:24:12;;;;;;;13.00;7.05;;;;;;;12.43;100.00;102217.72;5309871;28;20054;-73
2022/10/04 01:26:44;;;;;;;15.05;7.40;;;;;;;12.12;100.00;102212.84;5306233;28;20030;-73
2022/10/04 01:29:23;;;;;;;12.45;6.68;;;;;;;12.12;100.00;102204.09;5301742;28;20028;-72
2022/10/04 01:31:57;;;;;;;9.35;6.57;;;;;;;12.06;100.00;102194.03;5310238;28;20028;-73
2022/10/04 01:34:29;;;;;;;9.30;6.60;;;;;;;12.00;100.00;102207.56;5311530;28;20361;-72
2022/10/04 01:37:00;;;;;;;11.45;6.65;;;;;;;11.99;100.00;102200.66;5309513;28;20472;-73
2022/10/04 01:39:32;;;;;;;11.77;7.10;;;;;;;11.94;100.00;102206.22;5304601;28;20039;-73
2022/10/04 01:42:22;;;;;;;10.98;7.05;;;;;;;12.03;100.00;102202.09;5291979;28;20019;-73
2022/10/04 01:45:16;;;;;;;13.45;6.75;;;;;;;12.16;100.00;102192.44;5302895;28;20028;-73
2022/10/04 01:47:57;;;;;;;12.43;7.30;;;;;;;12.02;100.00;102184.69;5296239;28;20036;-73
2022/10/04 01:50:28;;;;;;;13.10;7.72;;;;;;;11.91;100.00;102190.66;5307451;28;20119;-73
2022/10/04 01:53:20;;;;;;;15.33;7.07;;;;;;;12.06;100.00;102196.66;5305947;28;20451;-73
2022/10/04 01:55:54;;;;;;;10.73;6.88;;;;;;;11.92;100.00;102190.56;5298254;28;20023;-73
2022/10/04 01:58:52;;;;;;;9.75;6.28;;;;;;;12.01;100.00;102189.09;5309487;28;20018;-73
2022/10/04 02:01:32;;;;;;;13.07;8.00;;;;;;;12.00;100.00;102184.75;5304458;28;20063;-73
2022/10/04 02:04:11;;;;;;;11.20;8.38;;;;;;;11.97;100.00;102185.00;5301529;28;20472;-73
2022/10/04 02:06:44;;;;;;;11.80;7.82;;;;;;;11.92;100.00;102187.09;5302173;28;20027;-73
2022/10/04 02:09:25;;;;;;;14.18;8.77;;;;;;;11.92;100.00;102177.41;5307930;28;20024;-73
2022/10/04 02:11:58;;;;;;;15.25;8.00;;;;;;;11.82;100.00;102181.63;5302602;28;20558;-73
2022/10/04 02:14:34;;;;;;;11.88;7.68;;;;;;;11.85;100.00;102170.06;5303513;28;20039;-73
2022/10/04 02:17:09;;;;;;;17.40;7.93;;;;;;;11.78;100.00;102171.41;5313917;28;20035;-73
2022/10/04 02:19:42;;;;;;;13.35;7.88;;;;;;;11.76;100.00;102158.41;5308657;28;20499;-73
2022/10/04 02:22:14;;;;;;;11.23;7.72;;;;;;;11.71;100.00;102150.00;5305320;28;20052;-73
2022/10/04 02:24:48;;;;;;;15.02;8.15;;;;;;;11.76;100.00;102147.88;5306164;28;20679;-73
2022/10/04 02:27:30;;;;;;;13.93;8.25;;;;;;;11.85;100.00;102135.94;5305579;28;20024;-72
2022/10/04 02:30:04;;;;;;;13.25;8.13;;;;;;;11.74;100.00;102144.50;5304466;28;20031;-73
2022/10/04 02:35:35;;;;;;;11.80;7.60;;;;;;;11.76;100.00;102133.94;5307774;28;20028;-73
2022/10/04 02:38:13;;;;;;;12.05;7.43;;;;;;;11.74;100.00;102128.75;5308588;28;20486;-73
2022/10/04 02:41:24;;;;;;;15.65;8.23;;;;;;;11.96;100.00;102119.44;5305538;28;20020;-73
2022/10/04 02:44:01;;;;;;;16.33;8.15;;;;;;;11.62;100.00;102113.88;5281028;28;20048;-72
2022/10/04 02:46:45;;;;;;;14.88;8.73;;;;;;;11.70;100.00;102114.16;5311968;28;20106;-73
2022/10/04 02:49:27;;;;;;;12.82;7.93;;;;;;;11.62;100.00;102112.06;5302665;28;20113;-72
2022/10/04 02:52:02;;;;;;;17.00;8.25;;;;;;;11.52;100.00;102097.09;5307076;28;20142;-72
2022/10/04 02:54:55;;;;;;;12.05;8.75;;;;;;;11.66;100.00;102089.91;5310634;28;20069;-73
2022/10/04 02:57:28;;;;;;;15.25;8.95;;;;;;;11.49;100.00;102086.81;5310452;28;20112;-72
2022/10/04 03:00:19;;;;;;;13.98;8.60;;;;;;;11.45;100.00;102078.31;5306794;28;20024;-73
2022/10/04 03:03:11;;;;;;;13.55;9.32;;;;;;;11.59;100.00;102072.94;5311880;28;20253;-72
2022/10/04 03:05:58;;;;;;;16.20;9.00;;;;;;;11.54;100.00;102074.19;5301429;28;20032;-72
2022/10/04 03:08:35;;;;;;;15.27;8.60;;;;;;;11.36;100.00;102071.03;5304235;28;20032;-72
2022/10/04 03:11:07;;;;;;;15.38;9.95;;;;;;;11.29;100.00;102065.41;5312710;28;20488;-72
2022/10/04 03:13:43;;;;;;;12.57;9.20;;;;;;;11.27;100.00;102059.41;5310279;28;20024;-73
2022/10/04 03:16:15;;;;;;;11.73;9.20;;;;;;;11.31;100.00;102079.22;5310746;28;20016;-72
2022/10/04 03:18:48;;;;;;;13.65;9.88;;;;;;;11.28;100.00;102074.19;5308292;28;20496;-72
2022/10/04 03:21:20;;;;;;;;;;;;;;;11.88;100.00;102070.06;5308789;28;20040;-73
2022/10/04 03:23:52;;;;;;;13.07;9.23;;;;;;;11.31;100.00;102073.16;5309165;28;19912;-72
2022/10/04 03:26:37;;;;;;;20.42;9.60;;;;;;;11.36;100.00;102065.78;5310218;28;20484;-72
2022/10/04 03:29:13;;;;;;;13.38;8.48;;;;;;;11.27;100.00;102058.56;5311043;28;20028;-73
2022/10/04 03:31:48;;;;;;;17.23;10.30;;;;;;;11.23;100.00;102057.94;5303605;28;20392;-73
2022/10/04 03:34:23;;;;;;;15.60;8.93;;;;;;;11.17;100.00;102058.34;5311042;28;20036;-72
2022/10/04 03:36:58;;;;;;;14.60;9.95;;;;;;;11.12;100.00;102063.91;5307049;28;20031;-72
2022/10/04 03:39:44;;;;;;;13.52;9.45;;;;;;;11.32;100.00;102051.22;5306973;28;20031;-72
2022/10/04 03:42:19;;;;;;;15.20;9.60;;;;;;;11.14;100.00;102048.91;5313910;28;20389;-72
2022/10/04 03:44:56;;;;;;;15.20;9.68;;;;;;;11.11;100.00;102046.50;5315268;28;20024;-72
2022/10/04 03:47:34;;;;;;;15.32;9.52;;;;;;;11.16;100.00;102043.56;5304239;28;20058;-72
2022/10/04 03:50:17;;;;;;;12.50;8.85;;;;;;;11.17;100.00;102042.59;5308122;28;20037;-73
2022/10/04 03:53:03;;;;;;;14.40;9.20;;;;;;;11.21;100.00;102041.44;5304819;28;20114;-72
2022/10/04 03:55:43;;;;;;;12.07;8.93;;;;;;;11.14;100.00;102034.97;5312355;28;20530;-72
2022/10/04 03:58:16;;;;;;;17.92;9.35;;;;;;;10.99;100.00;102030.75;5309757;28;20031;-72
2022/10/04 04:01:19;;;;;;;12.32;8.25;;;;;;;11.22;100.00;102029.19;5308747;28;20023;-72
2022/10/04 04:04:03;;;;;;;18.17;8.93;;;;;;;11.11;100.00;102029.91;5311748;28;20175;-72
2022/10/04 04:06:50;;;;;;;;;;;;;;;11.55;100.00;102023.38;5308829;28;20059;-72
2022/10/04 04:09:31;;;;;;;12.85;8.88;;;;;;;11.01;100.00;102029.69;5303348;28;19923;-72
2022/10/04 04:12:08;;;;;;;11.93;8.73;;;;;;;11.00;100.00;102029.81;5308684;28;20045;-72
2022/10/04 04:14:41;;;;;;;13.73;8.27;;;;;;;10.89;100.00;102039.22;5305992;28;20044;-72
2022/10/04 04:17:44;;;;;;;16.13;8.90;;;;;;;11.15;100.00;102026.97;5307523;28;20028;-72
2022/10/04 04:20:20;;;;;;;16.13;8.65;;;;;;;10.99;100.00;102038.63;5310385;28;20036;-72
2022/10/04 04:23:22;;;;;;;12.77;9.30;;;;;;;11.13;100.00;102041.13;5307238;28;20032;-72
2022/10/04 04:25:58;;;;;;;12.20;8.13;;;;;;;10.82;100.00;102027.47;5306197;28;20176;-72
2022/10/04 04:28:39;;;;;;;15.35;8.55;;;;;;;10.91;100.00;102033.88;5304557;28;20032;-72
2022/10/04 04:31:24;;;;;;;12.90;8.57;;;;;;;10.95;100.00;102035.38;5310821;28;20040;-72
2022/10/04 04:33:59;;;;;;;14.48;8.40;;;;;;;10.78;100.00;102039.09;5305822;28;20027;-72
2022/10/04 04:36:40;;;;;;;13.95;8.63;;;;;;;10.77;100.00;102032.19;5306251;28;20499;-72
2022/10/04 04:39:38;;;;;;;15.90;9.27;;;;;;;10.75;100.00;102038.47;5307317;28;20027;-72
2022/10/04 04:42:09;;;;;;;13.10;9.02;;;;;;;10.71;100.00;102027.34;5308839;28;20032;-72
2022/10/04 04:45:24;;;;;;;13.23;8.30;;;;;;;11.01;100.00;102023.63;5313632;28;20496;-72
2022/10/04 04:47:56;;;;;;;14.18;8.68;;;;;;;10.66;100.00;102026.81;5264298;28;20558;-72
2022/10/04 04:50:30;;;;;;;13.37;8.93;;;;;;;10.73;100.00;102027.25;5303213;28;20374;-72
2022/10/04 04:53:13;;;;;;;12.30;8.55;;;;;;;10.74;100.00;102019.28;5307932;28;20028;-72
2022/10/04 04:55:52;;;;;;;15.63;8.73;;;;;;;10.75;100.00;102018.34;5305292;28;20020;-72
2022/10/04 04:58:28;;;;;;;11.35;8.93;;;;;;;10.62;100.00;102005.22;5312159;28;20032;-72
2022/10/04 05:01:07;;;;;;;12.57;7.78;;;;;;;10.70;100.00;102004.72;5302725;28;20031;-72
2022/10/04 05:03:38;;;;;;;13.50;8.48;;;;;;;10.60;100.00;102006.25;5307311;28;20024;-72
2022/10/04 05:06:24;;;;;;;16.77;9.20;;;;;;;10.77;100.00;102016.47;5305744;28;20035;-72
2022/10/04 05:08:55;;;;;;;12.52;8.80;;;;;;;10.56;100.00;102016.09;5307430;28;20043;-72
2022/10/04 05:11:30;;;;;;;13.93;8.25;;;;;;;10.59;100.00;102017.69;5312234;28;20392;-72
2022/10/04 05:14:10;;;;;;;14.95;8.45;;;;;;;10.65;100.00;102023.38;5309382;28;20031;-72
2022/10/04 05:16:49;;;;;;;14.18;8.07;;;;;;;10.61;100.00;102015.81;5301125;28;20032;-72
2022/10/04 05:19:26;;;;;;;10.18;7.55;;;;;;;10.53;100.00;102015.44;5307081;28;20082;-71
2022/10/04 05:22:01;;;;;;;11.88;8.27;;;;;;;10.50;100.00;102013.91;5307397;28;20497;-72
2022/10/04 05:24:35;;;;;;;10.57;7.80;;;;;;;10.44;100.00;102015.13;5305967;28;20032;-72
2022/10/04 05:27:21;;;;;;;15.55;7.97;;;;;;;10.63;100.00;102014.75;5304167;28;20035;-72
2022/10/04 05:30:06;;;;;;;11.57;7.50;;;;;;;10.63;100.00;102016.53;5304477;28;20557;-72
2022/10/04 05:32:51;;;;;;;11.40;7.60;;;;;;;10.50;100.00;102018.31;5307459;28;20024;-72
2022/10/04 05:35:22;;;;;;;12.50;7.65;;;;;;;10.42;100.00;102014.41;5301859;28;20031;-72
2022/10/04 05:38:04;;;;;;;9.13;6.47;;;;;;;10.53;100.00;102015.44;5306391;28;20028;-72
2022/10/04 05:40:48;;;;;;;10.95;7.25;;;;;;;10.42;100.00;102014.41;5304392;28;20385;-71
2022/10/04 05:43:28;;;;;;;13.43;6.88;;;;;;;10.44;100.00;102024.75;5304940;28;20024;-72
2022/10/04 05:46:21;;;;;;;10.55;7.03;;;;;;;10.58;100.00;102021.25;5307951;28;20172;-71
2022/10/04 05:49:01;;;;;;;10.97;6.60;;;;;;;10.53;100.00;102016.31;5300855;28;20024;-71
2022/10/04 05:51:36;;;;;;;10.05;6.70;;;;;;;10.43;100.00;102021.31;5311705;28;20070;-72
2022/10/04 05:54:08;;;;;;;10.52;6.28;;;;;;;10.42;100.00;102034.53;5283947;28;20032;-72
2022/10/04 05:57:07;;;;;;;12.57;6.95;;;;;;;10.56;100.00;102031.81;5302888;28;20404;-72
2022/10/04 06:00:10;;;;;;;10.75;6.22;;;;;;;10.66;100.00;102035.53;5304317;28;20023;-72
2022/10/04 06:02:56;;;;;;;12.68;6.10;;;;;;;10.60;100.00;102040.31;5303292;28;20362;-72
2022/10/04 06:05:36;;;;;;;9.05;6.53;;;;;;;10.56;100.00;102041.47;5291213;28;20080;-72
2022/10/04 06:08:32;;;;;;;11.02;6.90;;;;;;;10.67;100.00;102029.31;5299550;28;20059;-72
2022/10/04 06:11:28;;;;;;;11.73;5.75;;;;;;;10.71;100.00;102027.34;5295437;28;20024;-72
2022/10/04 06:14:43;;;;;;;8.85;5.78;;;;;;;10.74;100.00;102039.41;5304976;28;20096;-72
2022/10/04 06:17:28;;;;;;;13.00;6.30;;;;;;;10.53;100.00;102039.03;5304227;28;20020;-72
2022/10/04 06:20:21;;;;;;;12.00;6.25;;;;;;;10.61;100.00;102042.03;5293821;28;20473;-72
2022/10/04 06:22:59;;;;;;;10.23;6.03;;;;;;;10.66;100.00;102040.75;5306812;28;20434;-72
2022/10/04 06:25:41;;;;;;;8.82;5.78;;;;;;;10.68;100.00;102038.03;5301603;28;20039;-72
2022/10/04 06:28:28;;;;;;;11.95;5.65;;;;;;;10.73;100.00;102040.38;5300413;28;20726;-72
2022/10/04 06:31:23;;;;;;;10.30;5.60;;;;;;;10.86;100.00;102042.06;5299410;28;20024;-72
2022/10/04 06:34:16;;;;;;;9.00;5.25;;;;;;;10.66;100.00;102043.38;5302202;28;20035;-72
2022/10/04 06:37:09;;;;;;;10.25;5.70;;;;;;;10.93;100.00;102035.47;5293491;28;20043;-72
2022/10/04 06:40:05;;;;;;;8.00;5.53;;;;;;;10.82;100.00;102034.50;5299078;28;20091;-72
2022/10/04 06:42:59;;;;;;;11.05;5.15;;;;;;;10.83;100.00;102025.69;5304205;28;20081;-72
2022/10/04 06:45:56;;;;;;;;;;;;;;;11.31;100.00;102020.69;5301080;28;20036;-72
2022/10/04 06:48:57;;;;;;;9.40;5.38;;;;;;;10.90;100.00;102029.56;5293052;28;19943;-72
2022/10/04 06:51:34;;;;;;;8.05;5.45;;;;;;;10.78;100.00;102033.84;5299437;28;20492;-72
2022/10/04 06:54:23;;;;;;;11.40;5.47;;;;;;;10.92;100.00;102027.72;5301441;28;20046;-72
2022/10/04 06:57:07;;;;;;;11.20;4.90;;;;;;;10.88;100.00;102031.47;5301232;28;20040;-71
2022/10/04 06:59:51;;;;;;;;;;;;;;;11.27;100.00;102029.72;5307911;28;20020;-72
2022/10/04 07:02:27;;;;;;;;;;;;;;;11.30;100.00;102029.50;5304319;28;19911;-72
2022/10/04 07:05:12;;;;;;;8.23;4.93;;;;;;;10.83;100.00;102023.06;5306002;28;19965;-71
2022/10/04 07:08:05;;;;;;;8.93;5.75;;;;;;;10.75;100.00;102020.13;5300420;28;20035;-72
2022/10/04 07:10:46;;;;;;;8.85;5.20;;;;;;;10.77;100.00;102018.25;5300423;28;20037;-72
2022/10/04 07:13:32;;;;;;;8.07;5.05;;;;;;;10.69;100.00;102022.22;5295844;28;20168;-72
2022/10/04 07:16:15;;;;;;;11.32;5.25;;;;;;;10.87;100.00;102009.66;5300589;28;20523;-74
2022/10/04 07:19:37;;;;;;;10.07;5.38;;;;;;;11.09;100.00;102011.66;5309125;28;20036;-72
2022/10/04 07:22:40;;;;;;;13.25;5.45;;;;;;;11.02;100.00;102007.75;5222191;28;20057;-72
2022/10/04 07:25:19;;;;;;;9.20;5.38;;;;;;;10.90;100.00;102003.34;5221555;28;20479;-72
2022/10/04 07:31:09;;;;;;;9.63;5.28;;;;;;;11.00;100.00;102016.69;5314626;28;20040;-72
2022/10/04 07:33:47;;;;;;;;;;;;;;;11.47;100.00;102021.28;5305296;28;20112;-72
2022/10/04 07:36:28;;;;;;;12.93;5.80;;;;;;;11.15;100.00;102013.88;5307562;28;19907;-72
2022/10/04 07:39:09;;;;;;;10.10;5.28;;;;;;;11.18;100.00;102020.69;5304971;28;20027;-72
2022/10/04 07:42:06;;;;;;;11.18;6.40;;;;;;;11.35;100.00;102028.22;5305167;28;20039;-72
2022/10/04 07:44:41;;;;;;;10.63;6.38;;;;;;;11.28;100.00;102026.13;5300276;28;20092;-72
2022/10/04 07:47:22;;;;;;;8.90;5.57;;;;;;;11.37;100.00;102023.72;5283065;28;20381;-72
2022/10/04 07:49:54;;;;;;;11.73;6.45;;;;;;;11.35;100.00;102022.97;5305310;28;20042;-72
2022/10/04 07:52:44;;;;;;;10.65;6.45;;;;;;;11.58;100.00;102020.53;5304442;28;20027;-72
2022/10/04 07:55:22;;;;;;;14.73;6.35;;;;;;;11.55;100.00;102018.97;5302863;28;20045;-72
2022/10/04 07:58:06;;;;;;;15.55;7.00;;;;;;;11.68;100.00;102014.53;5310058;28;20119;-72
2022/10/04 08:00:56;;;;;;;;;;;;;;;12.06;100.00;102003.09;5305221;28;20040;-72
2022/10/04 08:04:01;;;;;;;10.80;5.95;;;;;;;11.92;100.00;102006.72;5306356;28;19916;-72
2022/10/04 08:06:36;;;;;;;12.18;7.15;;;;;;;11.86;100.00;102009.81;5307174;28;21069;-72
2022/10/04 08:09:32;;;;;;;11.90;7.68;;;;;;;12.01;100.00;102012.25;5287583;28;20027;-72
2022/10/04 08:12:21;;;;;;;11.20;6.10;;;;;;;12.17;100.00;102011.03;5306288;28;20040;-72
2022/10/04 08:15:13;;;;;;;9.05;6.00;;;;;;;12.26;100.00;101993.75;5306920;28;20028;-72
2022/10/04 08:17:50;;;;;;;12.43;6.75;;;;;;;12.17;100.00;101990.03;5308035;28;20034;-72
2022/10/04 08:20:35;;;;;;;13.38;6.40;;;;;;;12.39;100.00;101999.81;5300712;28;20095;-72
2022/10/04 08:23:27;;;;;;;11.10;6.63;;;;;;;12.57;100.00;101996.72;5301610;28;20440;-72
2022/10/04 08:26:35;;;;;;;11.13;7.07;;;;;;;12.68;100.00;101996.78;5308450;28;20134;-72
2022/10/04 08:32:31;;;;;;;9.15;5.85;;;;;;;12.95;100.00;102004.34;5302679;28;20397;-72
2022/10/04 08:35:29;;;;;;;10.18;6.22;;;;;;;13.09;100.00;102000.69;5307351;28;20039;-72
2022/10/04 08:38:20;;;;;;;9.77;5.88;;;;;;;13.08;100.00;102012.16;5298498;28;20056;-72
2022/10/04 08:40:51;;;;;;;8.18;6.55;;;;;;;12.97;100.00;102009.53;5303165;28;20515;-72
2022/10/04 08:43:44;;;;;;;12.00;6.93;;;;;;;13.27;100.00;102009.81;5302091;28;20028;-72
2022/10/04 08:46:41;;;;;;;9.75;6.60;;;;;;;13.34;100.00;102008.38;5300939;28;20338;-72
2022/10/04 08:49:43;;;;;;;12.70;7.00;;;;;;;13.60;100.00;102006.34;5300972;28;20077;-72
2022/10/04 08:52:52;;;;;;;12.32;7.28;;;;;;;13.74;100.00;102015.75;5300950;28;20519;-72
2022/10/04 08:55:52;;;;;;;12.27;6.35;;;;;;;13.87;100.00;102002.47;5304823;28;20024;-72
2022/10/04 08:59:05;;;;;;;12.48;6.88;;;;;;;14.01;100.00;102009.25;5305779;28;20460;-72
2022/10/04 09:01:45;;;;;;;14.48;7.13;;;;;;;13.94;100.00;102013.31;5301968;28;20036;-72
2022/10/04 09:04:55;;;;;;;10.50;6.68;;;;;;;14.22;100.00;102007.50;5301610;28;20063;-72
2022/10/04 09:07:51;;;;;;;15.35;7.32;;;;;;;14.32;100.00;102007.59;5304198;28;20161;-72
2022/10/04 09:10:46;;;;;;;7.90;6.43;;;;;;;14.34;100.00;102011.78;5309679;28;20404;-72
2022/10/04 09:13:32;;;;;;;11.57;6.70;;;;;;;14.46;100.00;102009.09;5303711;28;20035;-72
2022/10/04 09:16:28;;;;;;;12.48;7.03;;;;;;;14.58;100.00;102024.78;5303756;28;20047;-73
2022/10/04 09:19:39;;;;;;;12.07;6.88;;;;;;;14.95;100.00;102018.19;5303936;28;20432;-72
2022/10/04 09:22:16;;;;;;;12.13;6.47;;;;;;;14.85;100.00;102020.81;5263463;28;20044;-73
2022/10/04 09:24:51;;;;;;;14.93;7.78;;;;;;;15.00;100.00;102002.81;5306692;28;20111;-73
2022/10/04 09:27:33;;;;;;;11.00;6.20;;;;;;;15.19;100.00;102002.94;5289796;28;20119;-72
2022/10/04 09:30:21;;;;;;;14.38;6.22;;;;;;;15.32;100.00;101995.59;5305852;28;20047;-73
2022/10/04 09:33:30;;;;;;;10.68;6.10;;;;;;;15.64;100.00;101997.22;5306150;28;20508;-72
2022/10/04 09:36:28;;;;;;;9.18;5.47;;;;;;;15.68;100.00;101990.75;5235216;28;20116;-73
2022/10/04 09:39:30;;;;;;;9.05;5.18;;;;;;;15.79;100.00;101987.16;5243965;28;20045;-72
2022/10/04 09:42:25;;;;;;;9.35;5.55;;;;;;;15.85;100.00;101991.06;5300135;28;20044;-73
2022/10/04 09:45:20;;;;;;;11.63;5.40;;;;;;;16.07;100.00;101974.97;5301696;28;20028;-73
2022/10/04 09:48:24;;;;;;;10.88;5.57;;;;;;;16.16;100.00;101968.81;5305246;28;20030;-73
2022/10/04 09:51:12;;;;;;;9.52;5.45;;;;;;;16.12;100.00;101975.38;5300087;28;20046;-73
2022/10/04 09:54:05;;;;;;;12.00;5.35;;;;;;;16.35;100.00;101986.50;5300522;28;20032;-73
2022/10/04 09:56:52;;;;;;;8.70;5.10;;;;;;;16.46;100.00;101986.34;5305478;28;20028;-73
2022/10/04 09:59:35;;;;;;;9.63;5.82;;;;;;;16.49;100.00;101985.25;5308674;28;20394;-73
2022/10/04 10:02:19;;;;;;;8.55;4.80;;;;;;;16.65;100.00;101997.91;5303730;28;20027;-73
2022/10/04 10:05:25;;;;;;;11.63;5.20;;;;;;;16.70;100.00;101987.72;5308264;28;20047;-73
2022/10/04 10:08:34;;;;;;;10.13;5.15;;;;;;;16.77;100.00;101989.66;5298766;28;20077;-73
2022/10/04 10:14:21;;;;;;;11.43;5.45;;;;;;;16.93;100.00;101988.25;5305976;28;20020;-73
2022/10/04 10:17:14;;;;;;;10.57;5.50;;;;;;;16.95;100.00;101975.72;5303205;28;20031;-73
2022/10/04 10:20:08;;;;;;;9.20;5.13;;;;;;;16.86;100.00;101973.91;5305727;28;20024;-73
2022/10/04 10:22:57;;;;;;;8.43;4.35;;;;;;;17.09;100.00;101977.91;5313108;22;20309;-77
2022/10/04 10:25:48;;;;;;;7.95;4.63;;;;;;;17.24;100.00;101962.38;5304400;28;20031;-78
2022/10/04 10:28:42;;;;;;;10.80;5.07;;;;;;;17.41;100.00;101955.44;5307869;28;20035;-78
2022/10/04 10:31:55;;;;;;;7.55;4.25;;;;;;;17.54;100.00;101952.44;5306751;28;20523;-78
2022/10/04 10:35:09;;;;;;;10.65;5.07;;;;;;;17.77;100.00;101958.19;5306491;28;20107;-78
2022/10/04 10:38:15;;;;;;;11.52;4.82;;;;;;;17.80;100.00;101952.56;5297818;28;20062;-78
2022/10/04 10:40:58;;;;;;;9.05;5.47;;;;;;;17.82;100.00;101969.19;5307735;28;20058;-78
2022/10/04 10:43:49;;;;;;;7.90;5.00;;;;;;;18.04;100.00;101954.66;5307031;28;20028;-78
2022/10/04 10:46:30;;;;;;;8.30;3.70;;;;;;;17.92;100.00;101960.19;5306475;28;20561;-78
2022/10/04 10:49:23;;;;;;;8.05;3.83;;;;;;;18.13;100.00;101964.34;5308268;28;20028;-78
2022/10/04 10:52:24;;;;;;;6.93;4.10;;;;;;;18.15;100.00;101970.34;5291671;28;20096;-78
2022/10/04 10:55:13;;;;;;;7.88;3.88;;;;;;;18.09;100.00;101977.06;5309619;28;20031;-78
2022/10/04 10:58:22;;;;;;;6.88;3.95;;;;;;;18.04;100.00;101981.16;5310573;27;20575;-78
2022/10/04 11:01:33;;;;;;;8.57;4.07;;;;;;;18.04;100.00;101971.38;5311511;28;20039;-78
2022/10/04 11:04:37;;;;;;;6.63;3.90;;;;;;;18.06;100.00;101953.50;5312607;27;20024;-78
2022/10/04 11:07:32;;;;;;;6.80;4.20;;;;;;;18.12;100.00;101954.72;5292637;28;20023;-78
2022/10/04 11:10:18;;;;;;;9.02;4.45;;;;;;;18.34;100.00;101953.41;5307923;27;20035;-78
2022/10/04 11:13:17;;;;;;;8.57;3.80;;;;;;;18.44;100.00;101949.66;5310335;28;20028;-78
2022/10/04 11:16:10;;;;;;;9.15;4.65;;;;;;;18.58;100.00;101944.78;5310077;28;20044;-78
2022/10/04 11:19:00;;;;;;;7.28;3.80;;;;;;;18.58;100.00;101935.00;5310014;28;20043;-78
2022/10/04 11:22:05;;;;;;;7.50;4.43;;;;;;;18.68;100.00;101935.75;5312240;27;20177;-79
2022/10/04 11:25:04;;;;;;;7.20;3.85;;;;;;;18.77;100.00;101927.84;5311304;28;20035;-78
2022/10/04 11:27:53;;;;;;;7.60;3.65;;;;;;;18.83;100.00;101929.88;5313268;28;20027;-78
2022/10/04 11:30:38;;;;;;;6.65;4.10;;;;;;;18.76;100.00;101924.38;5315552;27;20028;-78
2022/10/04 11:33:31;;;;;;;6.90;3.55;;;;;;;18.99;100.00;101927.31;5309587;28;20024;-79
2022/10/04 11:36:07;;;;;;;5.78;3.47;;;;;;;18.94;100.00;101918.97;5312255;27;20028;-78
2022/10/04 11:38:50;;;;;;;8.55;3.88;;;;;;;19.26;100.00;101920.09;5309784;28;20041;-79
2022/10/04 11:41:27;;;;;;;10.75;4.22;;;;;;;19.13;100.00;101916.09;5311985;28;20068;-78
2022/10/04 11:44:29;;;;;;;6.47;2.90;;;;;;;19.14;100.00;101904.47;5315084;28;20032;-79
2022/10/04 11:47:43;;;;;;;6.18;3.05;;;;;;;19.52;100.00;101915.53;5312659;27;20450;-79
2022/10/04 11:50:50;;;;;;;4.80;3.10;;;;;;;19.50;100.00;101903.38;5299629;28;20036;-79
2022/10/04 11:53:49;;;;;;;7.75;3.20;;;;;;;19.55;100.00;101895.78;5313508;28;20028;-79
2022/10/04 11:56:23;;;;;;;7.97;3.22;;;;;;;19.35;100.00;101889.91;5313323;27;20036;-79
2022/10/04 11:59:19;;;;;;;5.03;2.60;;;;;;;19.49;100.00;101894.59;5314461;28;20076;-79
2022/10/04 12:02:40;;;;;;;8.70;3.13;;;;;;;19.72;100.00;101901.97;5313303;28;20023;-79
2022/10/04 12:05:19;;;;;;;6.15;2.83;;;;;;;19.59;100.00;101881.16;5312432;28;20027;-79
2022/10/04 12:08:01;;;;;;;7.32;2.53;;;;;;;19.57;100.00;101899.91;5313150;28;20538;-79
2022/10/04 12:10:38;;;;;;;6.30;2.97;;;;;;;19.38;100.00;101900.22;5312009;27;20063;-76
2022/10/04 12:13:37;;;;;;;7.93;2.28;;;;;;;19.55;100.00;101896.59;5309432;27;20040;-76
2022/10/04 12:16:28;;;;;;;4.70;2.40;;;;;;;19.72;100.00;101894.81;5311302;27;20043;-76
2022/10/04 12:19:26;;;;;;;4.97;2.55;;;;;;;19.93;100.00;101892.50;5309582;27;20032;-76
2022/10/04 12:22:22;;;;;;;8.27;2.88;;;;;;;19.95;100.00;101896.84;5307970;28;20411;-76
2022/10/04 12:25:13;;;;;;;6.18;3.03;;;;;;;19.76;100.00;101882.84;5307709;28;20118;-76
2022/10/04 12:28:26;;;;;;;5.30;2.28;;;;;;;19.89;100.00;101885.88;5308632;27;20028;-76
2022/10/04 12:31:15;;;;;;;5.13;2.90;;;;;;;19.87;100.00;101881.69;5308461;28;20669;-76
2022/10/04 12:34:14;;;;;;;5.13;2.55;;;;;;;19.95;100.00;101880.88;5307449;28;20503;-76
2022/10/04 12:37:12;;;;;;;5.05;2.70;;;;;;;20.10;100.00;101880.03;5312557;28;20073;-78
2022/10/04 12:39:49;;;;;;;6.13;2.72;;;;;;;20.00;100.00;101865.22;5310812;28;20463;-79
2022/10/04 12:42:44;;;;;;;5.72;2.83;;;;;;;19.93;100.00;101862.44;5315117;27;20118;-79
2022/10/04 12:45:51;;;;;;;7.88;3.13;;;;;;;20.35;100.00;101861.38;5315759;27;20028;-79
2022/10/04 12:48:40;;;;;;;6.13;3.20;;;;;;;20.16;100.00;101860.75;5307876;28;20104;-79
2022/10/04 12:51:30;;;;;;;5.50;2.22;;;;;;;20.31;100.00;101854.75;5314590;27;20097;-79
2022/10/04 12:54:30;;;;;;;7.97;2.85;;;;;;;20.20;100.00;101855.09;5315127;27;20035;-79